< < Back
Terminal Aerodrome Forecast


Current Version              Previous Versions:   1  2  3  4  5  6  7  8  9  

Terminal Aerodrome Forecast

934
FTUS44 KBMX 122008 AAA
TAFANB
TAF AMD
KANB 122008Z 1220/1318 29012G20KT P6SM SKC
     FM130000 32009KT P6SM SKC
     FM130800 35008KT P6SM SKC=



Latest METAR

181
SAUS70 KWBC 130200 RRC
MTRANB
METAR KANB 130153Z AUTO 31011G18KT 10SM CLR 11/M03 A3020 RMK AO2 SLP233
T01111033


USA.gov is the U.S. government's official web portal to all federal, state and local government web resources and services.